sensor_id;sensor_type;location;lat;lon;timestamp;P1;durP1;ratioP1;P2;durP2;ratioP2
669;SDS011;317;48.758;9.302;2022-10-24T00:02:06;4.17;;;1.67;;
669;SDS011;317;48.758;9.302;2022-10-24T00:04:36;1.63;;;1.20;;
669;SDS011;317;48.758;9.302;2022-10-24T00:07:04;4.20;;;1.40;;
669;SDS011;317;48.758;9.302;2022-10-24T00:09:32;7.63;;;1.77;;
669;SDS011;317;48.758;9.302;2022-10-24T00:12:00;7.17;;;2.30;;
669;SDS011;317;48.758;9.302;2022-10-24T00:14:28;16.10;;;1.77;;
669;SDS011;317;48.758;9.302;2022-10-24T00:16:55;11.60;;;1.70;;
669;SDS011;317;48.758;9.302;2022-10-24T00:19:22;10.13;;;2.40;;
669;SDS011;317;48.758;9.302;2022-10-24T00:21:50;4.30;;;1.80;;
669;SDS011;317;48.758;9.302;2022-10-24T00:24:17;10.73;;;2.13;;
669;SDS011;317;48.758;9.302;2022-10-24T00:26:44;16.70;;;2.07;;
669;SDS011;317;48.758;9.302;2022-10-24T00:29:11;5.17;;;1.73;;
669;SDS011;317;48.758;9.302;2022-10-24T00:31:38;13.43;;;1.90;;
669;SDS011;317;48.758;9.302;2022-10-24T00:34:06;2.70;;;1.50;;
669;SDS011;317;48.758;9.302;2022-10-24T00:36:33;7.43;;;2.10;;
669;SDS011;317;48.758;9.302;2022-10-24T00:39:02;5.87;;;1.43;;
669;SDS011;317;48.758;9.302;2022-10-24T00:41:30;5.43;;;1.40;;
669;SDS011;317;48.758;9.302;2022-10-24T00:44:11;6.27;;;1.47;;
669;SDS011;317;48.758;9.302;2022-10-24T00:46:40;5.70;;;1.73;;
669;SDS011;317;48.758;9.302;2022-10-24T00:49:11;6.73;;;1.63;;
669;SDS011;317;48.758;9.302;2022-10-24T00:51:40;13.50;;;1.70;;
669;SDS011;317;48.758;9.302;2022-10-24T00:54:10;5.43;;;1.40;;
669;SDS011;317;48.758;9.302;2022-10-24T00:56:39;4.73;;;1.43;;
669;SDS011;317;48.758;9.302;2022-10-24T00:59:09;4.47;;;1.60;;
669;SDS011;317;48.758;9.302;2022-10-24T01:01:39;5.67;;;2.00;;
669;SDS011;317;48.758;9.302;2022-10-24T01:04:09;11.07;;;2.20;;
669;SDS011;317;48.758;9.302;2022-10-24T01:06:40;6.73;;;2.00;;
669;SDS011;317;48.758;9.302;2022-10-24T01:09:18;7.77;;;2.13;;
669;SDS011;317;48.758;9.302;2022-10-24T01:11:56;13.80;;;1.90;;
669;SDS011;317;48.758;9.302;2022-10-24T01:14:32;6.27;;;1.60;;
669;SDS011;317;48.758;9.302;2022-10-24T01:17:06;3.60;;;1.40;;
669;SDS011;317;48.758;9.302;2022-10-24T01:19:46;7.43;;;1.77;;
669;SDS011;317;48.758;9.302;2022-10-24T01:22:37;2.90;;;1.10;;
669;SDS011;317;48.758;9.302;2022-10-24T01:25:14;9.60;;;2.97;;
669;SDS011;317;48.758;9.302;2022-10-24T01:27:52;9.27;;;2.10;;
669;SDS011;317;48.758;9.302;2022-10-24T01:30:24;5.20;;;1.40;;
669;SDS011;317;48.758;9.302;2022-10-24T01:32:55;5.07;;;1.73;;
669;SDS011;317;48.758;9.302;2022-10-24T01:35:31;3.97;;;1.87;;
669;SDS011;317;48.758;9.302;2022-10-24T01:38:08;5.93;;;1.87;;
669;SDS011;317;48.758;9.302;2022-10-24T01:40:44;3.80;;;1.43;;
669;SDS011;317;48.758;9.302;2022-10-24T01:43:17;7.83;;;1.70;;
669;SDS011;317;48.758;9.302;2022-10-24T01:45:49;4.97;;;1.87;;
669;SDS011;317;48.758;9.302;2022-10-24T01:48:20;6.97;;;2.67;;
669;SDS011;317;48.758;9.302;2022-10-24T01:50:50;5.90;;;1.63;;
669;SDS011;317;48.758;9.302;2022-10-24T01:53:19;5.40;;;2.23;;
669;SDS011;317;48.758;9.302;2022-10-24T01:55:48;5.80;;;2.00;;
669;SDS011;317;48.758;9.302;2022-10-24T01:58:15;4.33;;;1.80;;
669;SDS011;317;48.758;9.302;2022-10-24T02:00:42;5.97;;;1.83;;
669;SDS011;317;48.758;9.302;2022-10-24T02:03:15;8.10;;;1.70;;
669;SDS011;317;48.758;9.302;2022-10-24T02:05:48;4.67;;;1.80;;
669;SDS011;317;48.758;9.302;2022-10-24T02:08:18;9.97;;;3.13;;
669;SDS011;317;48.758;9.302;2022-10-24T02:10:51;5.23;;;1.20;;
669;SDS011;317;48.758;9.302;2022-10-24T02:13:22;3.70;;;2.07;;
669;SDS011;317;48.758;9.302;2022-10-24T02:15:54;8.40;;;2.20;;
669;SDS011;317;48.758;9.302;2022-10-24T02:18:25;2.80;;;1.80;;
669;SDS011;317;48.758;9.302;2022-10-24T02:20:54;4.83;;;1.90;;
669;SDS011;317;48.758;9.302;2022-10-24T02:23:29;19.60;;;2.93;;
669;SDS011;317;48.758;9.302;2022-10-24T02:26:02;6.50;;;1.73;;
669;SDS011;317;48.758;9.302;2022-10-24T02:28:34;12.20;;;1.97;;
669;SDS011;317;48.758;9.302;2022-10-24T02:31:07;5.30;;;2.17;;
669;SDS011;317;48.758;9.302;2022-10-24T02:33:39;7.10;;;2.37;;
669;SDS011;317;48.758;9.302;2022-10-24T02:36:07;4.90;;;1.67;;
669;SDS011;317;48.758;9.302;2022-10-24T02:38:37;6.77;;;2.03;;
669;SDS011;317;48.758;9.302;2022-10-24T02:41:07;3.80;;;1.50;;
669;SDS011;317;48.758;9.302;2022-10-24T02:43:37;4.93;;;2.50;;
669;SDS011;317;48.758;9.302;2022-10-24T02:46:05;3.07;;;1.90;;
669;SDS011;317;48.758;9.302;2022-10-24T02:48:35;5.43;;;2.27;;
669;SDS011;317;48.758;9.302;2022-10-24T02:51:07;4.30;;;1.90;;
669;SDS011;317;48.758;9.302;2022-10-24T02:53:35;6.10;;;1.50;;
669;SDS011;317;48.758;9.302;2022-10-24T02:56:02;10.67;;;3.23;;
669;SDS011;317;48.758;9.302;2022-10-24T02:58:29;8.10;;;2.10;;
669;SDS011;317;48.758;9.302;2022-10-24T03:00:56;3.77;;;1.77;;
669;SDS011;317;48.758;9.302;2022-10-24T03:03:23;10.07;;;2.77;;
669;SDS011;317;48.758;9.302;2022-10-24T03:05:51;10.43;;;4.13;;
669;SDS011;317;48.758;9.302;2022-10-24T03:08:18;6.13;;;1.73;;
669;SDS011;317;48.758;9.302;2022-10-24T03:10:44;4.33;;;2.50;;
669;SDS011;317;48.758;9.302;2022-10-24T03:13:11;5.10;;;2.47;;
669;SDS011;317;48.758;9.302;2022-10-24T03:15:38;9.43;;;2.40;;
669;SDS011;317;48.758;9.302;2022-10-24T03:18:06;19.27;;;2.90;;
669;SDS011;317;48.758;9.302;2022-10-24T03:20:33;7.20;;;3.03;;
669;SDS011;317;48.758;9.302;2022-10-24T03:23:01;5.40;;;2.57;;
669;SDS011;317;48.758;9.302;2022-10-24T03:25:28;8.37;;;2.50;;
669;SDS011;317;48.758;9.302;2022-10-24T03:27:55;7.37;;;2.80;;
669;SDS011;317;48.758;9.302;2022-10-24T03:30:22;4.90;;;2.30;;
669;SDS011;317;48.758;9.302;2022-10-24T03:32:48;9.03;;;2.63;;
669;SDS011;317;48.758;9.302;2022-10-24T03:35:15;8.13;;;2.60;;
669;SDS011;317;48.758;9.302;2022-10-24T03:37:42;10.47;;;2.63;;
669;SDS011;317;48.758;9.302;2022-10-24T03:40:11;8.40;;;3.00;;
669;SDS011;317;48.758;9.302;2022-10-24T03:42:38;7.63;;;2.60;;
669;SDS011;317;48.758;9.302;2022-10-24T03:45:05;10.00;;;3.40;;
669;SDS011;317;48.758;9.302;2022-10-24T03:47:32;11.07;;;2.93;;
669;SDS011;317;48.758;9.302;2022-10-24T03:49:59;10.63;;;2.70;;
669;SDS011;317;48.758;9.302;2022-10-24T03:52:26;6.40;;;2.83;;
669;SDS011;317;48.758;9.302;2022-10-24T03:54:53;7.77;;;3.20;;
669;SDS011;317;48.758;9.302;2022-10-24T03:57:21;8.20;;;2.77;;
669;SDS011;317;48.758;9.302;2022-10-24T03:59:48;8.17;;;3.00;;
669;SDS011;317;48.758;9.302;2022-10-24T04:02:14;6.50;;;3.07;;
669;SDS011;317;48.758;9.302;2022-10-24T04:04:41;6.43;;;2.50;;
669;SDS011;317;48.758;9.302;2022-10-24T04:07:08;7.60;;;3.10;;
669;SDS011;317;48.758;9.302;2022-10-24T04:09:35;10.00;;;3.10;;
669;SDS011;317;48.758;9.302;2022-10-24T04:12:02;4.03;;;2.40;;
669;SDS011;317;48.758;9.302;2022-10-24T04:14:30;8.80;;;2.90;;
669;SDS011;317;48.758;9.302;2022-10-24T04:16:57;8.77;;;2.80;;
669;SDS011;317;48.758;9.302;2022-10-24T04:19:24;5.53;;;3.37;;
669;SDS011;317;48.758;9.302;2022-10-24T04:21:51;7.60;;;3.23;;
669;SDS011;317;48.758;9.302;2022-10-24T04:24:18;4.53;;;2.53;;
669;SDS011;317;48.758;9.302;2022-10-24T04:26:44;9.23;;;3.90;;
669;SDS011;317;48.758;9.302;2022-10-24T04:29:11;7.17;;;3.17;;
669;SDS011;317;48.758;9.302;2022-10-24T04:31:39;5.93;;;3.67;;
669;SDS011;317;48.758;9.302;2022-10-24T04:34:06;5.20;;;3.30;;
669;SDS011;317;48.758;9.302;2022-10-24T04:36:33;13.87;;;3.87;;
669;SDS011;317;48.758;9.302;2022-10-24T04:39:00;15.20;;;3.80;;
669;SDS011;317;48.758;9.302;2022-10-24T04:41:27;6.60;;;3.20;;
669;SDS011;317;48.758;9.302;2022-10-24T04:43:54;8.57;;;2.67;;
669;SDS011;317;48.758;9.302;2022-10-24T04:46:21;4.00;;;2.60;;
669;SDS011;317;48.758;9.302;2022-10-24T04:48:49;8.37;;;3.83;;
669;SDS011;317;48.758;9.302;2022-10-24T04:51:17;10.80;;;3.57;;
669;SDS011;317;48.758;9.302;2022-10-24T04:53:44;14.83;;;3.87;;
669;SDS011;317;48.758;9.302;2022-10-24T04:56:11;14.50;;;3.40;;
669;SDS011;317;48.758;9.302;2022-10-24T04:58:37;23.40;;;4.37;;
669;SDS011;317;48.758;9.302;2022-10-24T05:01:04;10.67;;;3.33;;
669;SDS011;317;48.758;9.302;2022-10-24T05:03:31;6.00;;;2.80;;
669;SDS011;317;48.758;9.302;2022-10-24T05:05:59;12.47;;;4.17;;
669;SDS011;317;48.758;9.302;2022-10-24T05:08:26;11.83;;;3.03;;
669;SDS011;317;48.758;9.302;2022-10-24T05:10:53;8.83;;;3.70;;
669;SDS011;317;48.758;9.302;2022-10-24T05:13:20;6.23;;;3.47;;
669;SDS011;317;48.758;9.302;2022-10-24T05:15:47;14.37;;;3.50;;
669;SDS011;317;48.758;9.302;2022-10-24T05:18:13;13.67;;;3.40;;
669;SDS011;317;48.758;9.302;2022-10-24T05:20:40;7.83;;;3.30;;
669;SDS011;317;48.758;9.302;2022-10-24T05:23:09;11.87;;;3.77;;
669;SDS011;317;48.758;9.302;2022-10-24T05:25:35;33.43;;;6.10;;
669;SDS011;317;48.758;9.302;2022-10-24T05:28:02;26.23;;;5.40;;
669;SDS011;317;48.758;9.302;2022-10-24T05:30:29;17.17;;;4.30;;
669;SDS011;317;48.758;9.302;2022-10-24T05:32:56;16.67;;;4.23;;
669;SDS011;317;48.758;9.302;2022-10-24T05:35:23;14.83;;;3.40;;
669;SDS011;317;48.758;9.302;2022-10-24T05:37:50;10.93;;;3.53;;
669;SDS011;317;48.758;9.302;2022-10-24T05:40:19;16.57;;;4.00;;
669;SDS011;317;48.758;9.302;2022-10-24T05:42:45;8.00;;;3.77;;
669;SDS011;317;48.758;9.302;2022-10-24T05:45:13;10.43;;;3.60;;
669;SDS011;317;48.758;9.302;2022-10-24T05:47:41;13.67;;;5.40;;
669;SDS011;317;48.758;9.302;2022-10-24T05:50:07;9.47;;;4.53;;
669;SDS011;317;48.758;9.302;2022-10-24T05:52:35;13.67;;;3.67;;
669;SDS011;317;48.758;9.302;2022-10-24T05:55:02;7.70;;;3.70;;
669;SDS011;317;48.758;9.302;2022-10-24T05:57:30;5.63;;;2.50;;
669;SDS011;317;48.758;9.302;2022-10-24T05:59:57;6.30;;;3.27;;
669;SDS011;317;48.758;9.302;2022-10-24T06:02:24;11.20;;;3.80;;
669;SDS011;317;48.758;9.302;2022-10-24T06:04:51;15.47;;;3.27;;
669;SDS011;317;48.758;9.302;2022-10-24T06:07:20;7.27;;;2.63;;
669;SDS011;317;48.758;9.302;2022-10-24T06:09:47;7.07;;;2.80;;
669;SDS011;317;48.758;9.302;2022-10-24T06:12:14;6.83;;;3.37;;
669;SDS011;317;48.758;9.302;2022-10-24T06:14:42;7.87;;;3.20;;
669;SDS011;317;48.758;9.302;2022-10-24T06:17:09;11.73;;;3.50;;
669;SDS011;317;48.758;9.302;2022-10-24T06:19:36;5.93;;;2.77;;
669;SDS011;317;48.758;9.302;2022-10-24T06:22:04;6.80;;;2.40;;
669;SDS011;317;48.758;9.302;2022-10-24T06:24:33;11.30;;;3.03;;
669;SDS011;317;48.758;9.302;2022-10-24T06:27:00;9.83;;;3.20;;
669;SDS011;317;48.758;9.302;2022-10-24T06:29:28;10.17;;;2.97;;
669;SDS011;317;48.758;9.302;2022-10-24T06:32:00;7.93;;;2.70;;
669;SDS011;317;48.758;9.302;2022-10-24T06:34:27;7.47;;;2.33;;
669;SDS011;317;48.758;9.302;2022-10-24T06:36:54;7.03;;;2.43;;
669;SDS011;317;48.758;9.302;2022-10-24T06:39:21;4.30;;;1.60;;
669;SDS011;317;48.758;9.302;2022-10-24T06:41:48;5.97;;;2.30;;
669;SDS011;317;48.758;9.302;2022-10-24T06:44:16;8.03;;;2.97;;
669;SDS011;317;48.758;9.302;2022-10-24T06:46:43;5.70;;;2.70;;
669;SDS011;317;48.758;9.302;2022-10-24T06:49:15;6.07;;;2.53;;
669;SDS011;317;48.758;9.302;2022-10-24T06:51:42;5.80;;;2.57;;
669;SDS011;317;48.758;9.302;2022-10-24T06:54:09;3.37;;;2.40;;
669;SDS011;317;48.758;9.302;2022-10-24T06:56:36;5.37;;;2.47;;
669;SDS011;317;48.758;9.302;2022-10-24T06:59:06;10.40;;;2.10;;
669;SDS011;317;48.758;9.302;2022-10-24T07:01:34;6.87;;;2.37;;
669;SDS011;317;48.758;9.302;2022-10-24T07:04:00;6.63;;;2.70;;
669;SDS011;317;48.758;9.302;2022-10-24T07:06:30;13.33;;;3.73;;
669;SDS011;317;48.758;9.302;2022-10-24T07:08:59;10.20;;;3.30;;
669;SDS011;317;48.758;9.302;2022-10-24T07:11:27;5.00;;;2.27;;
669;SDS011;317;48.758;9.302;2022-10-24T07:13:54;5.63;;;2.97;;
669;SDS011;317;48.758;9.302;2022-10-24T07:16:21;8.00;;;2.97;;
669;SDS011;317;48.758;9.302;2022-10-24T07:18:49;9.67;;;3.10;;
669;SDS011;317;48.758;9.302;2022-10-24T07:21:17;6.17;;;2.87;;
669;SDS011;317;48.758;9.302;2022-10-24T07:23:48;6.47;;;2.80;;
669;SDS011;317;48.758;9.302;2022-10-24T07:26:16;15.53;;;3.63;;
669;SDS011;317;48.758;9.302;2022-10-24T07:28:45;27.77;;;3.13;;
669;SDS011;317;48.758;9.302;2022-10-24T07:31:17;3.77;;;2.80;;
669;SDS011;317;48.758;9.302;2022-10-24T07:33:45;8.40;;;2.80;;
669;SDS011;317;48.758;9.302;2022-10-24T07:36:14;7.03;;;2.97;;
669;SDS011;317;48.758;9.302;2022-10-24T07:38:43;4.87;;;2.47;;
669;SDS011;317;48.758;9.302;2022-10-24T07:41:11;4.93;;;3.40;;
669;SDS011;317;48.758;9.302;2022-10-24T07:43:38;6.53;;;3.13;;
669;SDS011;317;48.758;9.302;2022-10-24T07:46:06;6.40;;;2.63;;
669;SDS011;317;48.758;9.302;2022-10-24T07:48:33;8.67;;;3.63;;
669;SDS011;317;48.758;9.302;2022-10-24T07:51:03;10.53;;;3.20;;
669;SDS011;317;48.758;9.302;2022-10-24T07:53:31;14.10;;;3.30;;
669;SDS011;317;48.758;9.302;2022-10-24T07:55:58;12.03;;;3.00;;
669;SDS011;317;48.758;9.302;2022-10-24T07:58:27;5.43;;;2.53;;
669;SDS011;317;48.758;9.302;2022-10-24T08:01:01;8.20;;;2.70;;
669;SDS011;317;48.758;9.302;2022-10-24T08:03:28;6.70;;;2.40;;
669;SDS011;317;48.758;9.302;2022-10-24T08:05:56;7.00;;;2.97;;
669;SDS011;317;48.758;9.302;2022-10-24T08:08:23;7.00;;;3.00;;
669;SDS011;317;48.758;9.302;2022-10-24T08:10:50;5.90;;;3.00;;
669;SDS011;317;48.758;9.302;2022-10-24T08:13:17;7.17;;;2.90;;
669;SDS011;317;48.758;9.302;2022-10-24T08:15:45;7.70;;;3.83;;
669;SDS011;317;48.758;9.302;2022-10-24T08:18:12;6.50;;;3.13;;
669;SDS011;317;48.758;9.302;2022-10-24T08:20:41;4.80;;;3.33;;
669;SDS011;317;48.758;9.302;2022-10-24T08:23:08;10.87;;;4.13;;
669;SDS011;317;48.758;9.302;2022-10-24T08:25:38;12.10;;;3.23;;
669;SDS011;317;48.758;9.302;2022-10-24T08:28:05;6.97;;;2.60;;
669;SDS011;317;48.758;9.302;2022-10-24T08:30:32;9.40;;;3.77;;
669;SDS011;317;48.758;9.302;2022-10-24T08:33:01;7.80;;;3.30;;
669;SDS011;317;48.758;9.302;2022-10-24T08:35:27;5.93;;;2.50;;
669;SDS011;317;48.758;9.302;2022-10-24T08:37:56;7.13;;;3.20;;
669;SDS011;317;48.758;9.302;2022-10-24T08:40:50;8.23;;;2.50;;
669;SDS011;317;48.758;9.302;2022-10-24T08:43:17;19.53;;;3.30;;
669;SDS011;317;48.758;9.302;2022-10-24T08:45:47;3.07;;;2.10;;
669;SDS011;317;48.758;9.302;2022-10-24T08:48:22;8.87;;;2.40;;
669;SDS011;317;48.758;9.302;2022-10-24T08:50:54;4.97;;;2.90;;
669;SDS011;317;48.758;9.302;2022-10-24T08:53:29;22.40;;;3.57;;
669;SDS011;317;48.758;9.302;2022-10-24T08:55:58;20.30;;;3.87;;
669;SDS011;317;48.758;9.302;2022-10-24T08:58:27;19.67;;;3.67;;
669;SDS011;317;48.758;9.302;2022-10-24T09:00:58;16.80;;;3.73;;
669;SDS011;317;48.758;9.302;2022-10-24T09:03:29;9.27;;;3.30;;
669;SDS011;317;48.758;9.302;2022-10-24T09:06:02;28.50;;;4.30;;
669;SDS011;317;48.758;9.302;2022-10-24T09:08:32;24.00;;;4.57;;
669;SDS011;317;48.758;9.302;2022-10-24T09:11:04;14.63;;;5.00;;
669;SDS011;317;48.758;9.302;2022-10-24T09:13:33;27.07;;;4.23;;
669;SDS011;317;48.758;9.302;2022-10-24T09:16:03;14.03;;;4.33;;
669;SDS011;317;48.758;9.302;2022-10-24T09:18:32;9.13;;;3.30;;
669;SDS011;317;48.758;9.302;2022-10-24T09:21:02;11.67;;;4.27;;
669;SDS011;317;48.758;9.302;2022-10-24T09:23:31;17.80;;;3.90;;
669;SDS011;317;48.758;9.302;2022-10-24T09:26:00;13.73;;;3.90;;
669;SDS011;317;48.758;9.302;2022-10-24T09:28:31;9.83;;;3.70;;
669;SDS011;317;48.758;9.302;2022-10-24T09:31:02;5.57;;;3.53;;
669;SDS011;317;48.758;9.302;2022-10-24T09:33:30;7.43;;;3.50;;
669;SDS011;317;48.758;9.302;2022-10-24T09:36:08;25.53;;;6.17;;
669;SDS011;317;48.758;9.302;2022-10-24T09:38:38;9.23;;;3.80;;
669;SDS011;317;48.758;9.302;2022-10-24T09:41:06;10.20;;;3.80;;
669;SDS011;317;48.758;9.302;2022-10-24T09:43:44;4.43;;;3.00;;
669;SDS011;317;48.758;9.302;2022-10-24T09:46:15;5.83;;;3.90;;
669;SDS011;317;48.758;9.302;2022-10-24T09:48:47;7.03;;;3.37;;
669;SDS011;317;48.758;9.302;2022-10-24T09:51:17;13.27;;;3.30;;
669;SDS011;317;48.758;9.302;2022-10-24T09:54:05;6.83;;;4.00;;
669;SDS011;317;48.758;9.302;2022-10-24T09:56:48;9.60;;;8.60;;
669;SDS011;317;48.758;9.302;2022-10-24T09:59:29;7.00;;;6.27;;
669;SDS011;317;48.758;9.302;2022-10-24T10:02:16;8.20;;;3.80;;
669;SDS011;317;48.758;9.302;2022-10-24T10:04:46;7.70;;;3.37;;
669;SDS011;317;48.758;9.302;2022-10-24T10:07:16;5.00;;;3.37;;
669;SDS011;317;48.758;9.302;2022-10-24T10:09:46;8.40;;;3.67;;
669;SDS011;317;48.758;9.302;2022-10-24T10:12:24;9.90;;;4.83;;
669;SDS011;317;48.758;9.302;2022-10-24T10:14:53;10.83;;;5.33;;
669;SDS011;317;48.758;9.302;2022-10-24T10:17:21;8.90;;;3.90;;
669;SDS011;317;48.758;9.302;2022-10-24T10:19:52;9.90;;;4.70;;
669;SDS011;317;48.758;9.302;2022-10-24T10:22:21;5.37;;;4.80;;
669;SDS011;317;48.758;9.302;2022-10-24T10:24:51;12.47;;;4.93;;
669;SDS011;317;48.758;9.302;2022-10-24T10:27:26;9.17;;;5.03;;
669;SDS011;317;48.758;9.302;2022-10-24T10:32:48;7.07;;;5.03;;
669;SDS011;317;48.758;9.302;2022-10-24T10:35:39;8.80;;;4.50;;
669;SDS011;317;48.758;9.302;2022-10-24T10:38:14;11.23;;;4.00;;
669;SDS011;317;48.758;9.302;2022-10-24T10:40:50;6.70;;;4.23;;
669;SDS011;317;48.758;9.302;2022-10-24T10:43:23;16.93;;;4.13;;
669;SDS011;317;48.758;9.302;2022-10-24T10:46:03;4.70;;;2.97;;
669;SDS011;317;48.758;9.302;2022-10-24T10:48:42;9.70;;;3.00;;
669;SDS011;317;48.758;9.302;2022-10-24T10:51:28;4.63;;;2.50;;
669;SDS011;317;48.758;9.302;2022-10-24T10:54:05;5.60;;;2.10;;
669;SDS011;317;48.758;9.302;2022-10-24T10:56:54;5.70;;;1.77;;
669;SDS011;317;48.758;9.302;2022-10-24T10:59:28;4.37;;;1.90;;
669;SDS011;317;48.758;9.302;2022-10-24T11:02:11;4.00;;;2.00;;
669;SDS011;317;48.758;9.302;2022-10-24T11:04:53;10.40;;;1.87;;
669;SDS011;317;48.758;9.302;2022-10-24T11:07:25;4.80;;;1.57;;
669;SDS011;317;48.758;9.302;2022-10-24T11:10:00;3.93;;;1.70;;
669;SDS011;317;48.758;9.302;2022-10-24T11:12:31;4.43;;;1.70;;
669;SDS011;317;48.758;9.302;2022-10-24T11:15:02;1.80;;;1.10;;
669;SDS011;317;48.758;9.302;2022-10-24T11:17:35;3.50;;;1.90;;
669;SDS011;317;48.758;9.302;2022-10-24T11:20:12;2.07;;;1.50;;
669;SDS011;317;48.758;9.302;2022-10-24T11:22:45;5.40;;;1.63;;
669;SDS011;317;48.758;9.302;2022-10-24T11:25:18;3.53;;;1.40;;
669;SDS011;317;48.758;9.302;2022-10-24T11:27:52;2.60;;;1.50;;
669;SDS011;317;48.758;9.302;2022-10-24T11:30:30;4.73;;;1.90;;
669;SDS011;317;48.758;9.302;2022-10-24T11:33:03;1.90;;;1.57;;
669;SDS011;317;48.758;9.302;2022-10-24T11:35:35;2.13;;;1.40;;
669;SDS011;317;48.758;9.302;2022-10-24T11:38:15;4.03;;;1.70;;
669;SDS011;317;48.758;9.302;2022-10-24T11:40:44;3.33;;;1.10;;
669;SDS011;317;48.758;9.302;2022-10-24T11:43:18;2.33;;;1.50;;
669;SDS011;317;48.758;9.302;2022-10-24T11:45:49;2.03;;;1.20;;
669;SDS011;317;48.758;9.302;2022-10-24T11:48:22;2.63;;;1.57;;
669;SDS011;317;48.758;9.302;2022-10-24T11:50:57;3.13;;;1.30;;
669;SDS011;317;48.758;9.302;2022-10-24T11:53:50;6.40;;;1.20;;
669;SDS011;317;48.758;9.302;2022-10-24T11:56:35;2.30;;;1.43;;
669;SDS011;317;48.758;9.302;2022-10-24T11:59:06;6.97;;;3.30;;
669;SDS011;317;48.758;9.302;2022-10-24T12:01:46;5.20;;;1.43;;
669;SDS011;317;48.758;9.302;2022-10-24T12:04:33;3.40;;;1.20;;
669;SDS011;317;48.758;9.302;2022-10-24T12:07:24;5.90;;;1.30;;
669;SDS011;317;48.758;9.302;2022-10-24T12:10:27;3.27;;;1.43;;
669;SDS011;317;48.758;9.302;2022-10-24T12:15:59;1.20;;;1.10;;
669;SDS011;317;48.758;9.302;2022-10-24T12:18:35;1.90;;;1.27;;
669;SDS011;317;48.758;9.302;2022-10-24T12:21:05;1.67;;;1.10;;
669;SDS011;317;48.758;9.302;2022-10-24T12:23:35;1.50;;;1.10;;
669;SDS011;317;48.758;9.302;2022-10-24T12:26:07;2.80;;;1.37;;
669;SDS011;317;48.758;9.302;2022-10-24T12:28:48;5.70;;;2.50;;
669;SDS011;317;48.758;9.302;2022-10-24T12:31:20;1.73;;;1.27;;
669;SDS011;317;48.758;9.302;2022-10-24T12:37:02;4.23;;;1.10;;
669;SDS011;317;48.758;9.302;2022-10-24T12:39:34;1.17;;;0.90;;
669;SDS011;317;48.758;9.302;2022-10-24T12:42:07;1.63;;;0.90;;
669;SDS011;317;48.758;9.302;2022-10-24T12:44:41;5.70;;;1.60;;
669;SDS011;317;48.758;9.302;2022-10-24T12:47:25;1.80;;;1.07;;
669;SDS011;317;48.758;9.302;2022-10-24T12:49:58;1.93;;;0.70;;
669;SDS011;317;48.758;9.302;2022-10-24T12:53:13;2.80;;;1.13;;
669;SDS011;317;48.758;9.302;2022-10-24T12:58:45;2.60;;;1.10;;
669;SDS011;317;48.758;9.302;2022-10-24T13:01:23;1.70;;;1.03;;
669;SDS011;317;48.758;9.302;2022-10-24T13:10:11;2.17;;;0.87;;
669;SDS011;317;48.758;9.302;2022-10-24T13:12:53;1.90;;;1.00;;
669;SDS011;317;48.758;9.302;2022-10-24T13:15:35;1.30;;;0.90;;
669;SDS011;317;48.758;9.302;2022-10-24T13:18:15;3.23;;;1.27;;
669;SDS011;317;48.758;9.302;2022-10-24T13:20:49;0.93;;;0.83;;
669;SDS011;317;48.758;9.302;2022-10-24T13:23:38;1.63;;;1.53;;
669;SDS011;317;48.758;9.302;2022-10-24T13:26:06;3.43;;;1.20;;
669;SDS011;317;48.758;9.302;2022-10-24T13:28:52;4.73;;;2.00;;
669;SDS011;317;48.758;9.302;2022-10-24T13:34:41;1.50;;;1.00;;
669;SDS011;317;48.758;9.302;2022-10-24T13:37:14;1.83;;;0.87;;
669;SDS011;317;48.758;9.302;2022-10-24T13:39:49;2.80;;;1.00;;
669;SDS011;317;48.758;9.302;2022-10-24T13:42:24;2.17;;;1.00;;
669;SDS011;317;48.758;9.302;2022-10-24T13:44:54;1.43;;;0.83;;
669;SDS011;317;48.758;9.302;2022-10-24T13:47:24;2.63;;;0.90;;
669;SDS011;317;48.758;9.302;2022-10-24T13:49:59;1.83;;;1.03;;
669;SDS011;317;48.758;9.302;2022-10-24T13:52:33;2.50;;;1.30;;
669;SDS011;317;48.758;9.302;2022-10-24T13:55:12;1.30;;;1.03;;
669;SDS011;317;48.758;9.302;2022-10-24T13:57:51;2.23;;;1.20;;
669;SDS011;317;48.758;9.302;2022-10-24T14:00:22;2.60;;;0.97;;
669;SDS011;317;48.758;9.302;2022-10-24T14:02:52;1.47;;;1.20;;
669;SDS011;317;48.758;9.302;2022-10-24T14:08:06;2.70;;;1.37;;
669;SDS011;317;48.758;9.302;2022-10-24T14:10:34;3.97;;;1.30;;
669;SDS011;317;48.758;9.302;2022-10-24T14:13:03;1.87;;;1.00;;
669;SDS011;317;48.758;9.302;2022-10-24T14:15:30;3.80;;;1.37;;
669;SDS011;317;48.758;9.302;2022-10-24T14:17:59;4.43;;;1.03;;
669;SDS011;317;48.758;9.302;2022-10-24T14:20:28;2.17;;;1.57;;
669;SDS011;317;48.758;9.302;2022-10-24T14:22:58;2.50;;;1.10;;
669;SDS011;317;48.758;9.302;2022-10-24T14:25:27;3.57;;;1.67;;
669;SDS011;317;48.758;9.302;2022-10-24T14:27:57;2.00;;;1.27;;
669;SDS011;317;48.758;9.302;2022-10-24T14:30:27;2.77;;;1.20;;
669;SDS011;317;48.758;9.302;2022-10-24T14:33:02;1.80;;;1.00;;
669;SDS011;317;48.758;9.302;2022-10-24T14:35:42;5.50;;;1.50;;
669;SDS011;317;48.758;9.302;2022-10-24T14:38:12;2.13;;;1.20;;
669;SDS011;317;48.758;9.302;2022-10-24T14:40:41;5.90;;;1.50;;
669;SDS011;317;48.758;9.302;2022-10-24T14:43:08;2.57;;;1.20;;
669;SDS011;317;48.758;9.302;2022-10-24T14:45:39;4.73;;;1.53;;
669;SDS011;317;48.758;9.302;2022-10-24T14:48:13;1.10;;;1.00;;
669;SDS011;317;48.758;9.302;2022-10-24T14:50:47;3.07;;;1.30;;
669;SDS011;317;48.758;9.302;2022-10-24T14:53:20;5.63;;;1.37;;
669;SDS011;317;48.758;9.302;2022-10-24T14:55:50;4.53;;;1.83;;
669;SDS011;317;48.758;9.302;2022-10-24T14:58:19;4.83;;;1.47;;
669;SDS011;317;48.758;9.302;2022-10-24T15:00:48;6.70;;;2.20;;
669;SDS011;317;48.758;9.302;2022-10-24T15:03:16;5.80;;;1.90;;
669;SDS011;317;48.758;9.302;2022-10-24T15:05:53;4.33;;;1.40;;
669;SDS011;317;48.758;9.302;2022-10-24T15:08:25;5.50;;;1.57;;
669;SDS011;317;48.758;9.302;2022-10-24T15:13:49;1.63;;;1.17;;
669;SDS011;317;48.758;9.302;2022-10-24T15:16:25;4.50;;;1.30;;
669;SDS011;317;48.758;9.302;2022-10-24T15:18:54;3.83;;;1.40;;
669;SDS011;317;48.758;9.302;2022-10-24T15:21:23;3.93;;;1.37;;
669;SDS011;317;48.758;9.302;2022-10-24T15:23:53;9.83;;;2.33;;
669;SDS011;317;48.758;9.302;2022-10-24T15:26:23;2.20;;;1.40;;
669;SDS011;317;48.758;9.302;2022-10-24T15:28:53;2.97;;;2.50;;
669;SDS011;317;48.758;9.302;2022-10-24T15:31:30;5.63;;;1.20;;
669;SDS011;317;48.758;9.302;2022-10-24T15:33:59;4.13;;;1.73;;
669;SDS011;317;48.758;9.302;2022-10-24T15:36:26;2.10;;;1.30;;
669;SDS011;317;48.758;9.302;2022-10-24T15:38:57;5.80;;;1.33;;
669;SDS011;317;48.758;9.302;2022-10-24T15:41:26;2.70;;;1.90;;
669;SDS011;317;48.758;9.302;2022-10-24T15:43:53;4.07;;;1.50;;
669;SDS011;317;48.758;9.302;2022-10-24T15:46:20;2.53;;;1.57;;
669;SDS011;317;48.758;9.302;2022-10-24T15:48:47;6.40;;;2.20;;
669;SDS011;317;48.758;9.302;2022-10-24T15:51:15;3.30;;;1.73;;
669;SDS011;317;48.758;9.302;2022-10-24T15:53:44;3.47;;;1.70;;
669;SDS011;317;48.758;9.302;2022-10-24T15:56:13;8.07;;;1.70;;
669;SDS011;317;48.758;9.302;2022-10-24T15:58:40;6.77;;;1.50;;
669;SDS011;317;48.758;9.302;2022-10-24T16:01:12;7.07;;;1.73;;
669;SDS011;317;48.758;9.302;2022-10-24T16:03:45;7.17;;;1.70;;
669;SDS011;317;48.758;9.302;2022-10-24T16:06:12;4.53;;;1.90;;
669;SDS011;317;48.758;9.302;2022-10-24T16:08:39;7.27;;;1.97;;
669;SDS011;317;48.758;9.302;2022-10-24T16:11:07;6.30;;;1.70;;
669;SDS011;317;48.758;9.302;2022-10-24T16:13:36;3.47;;;1.70;;
669;SDS011;317;48.758;9.302;2022-10-24T16:16:03;4.63;;;1.90;;
669;SDS011;317;48.758;9.302;2022-10-24T16:18:30;5.20;;;2.33;;
669;SDS011;317;48.758;9.302;2022-10-24T16:20:57;4.97;;;1.73;;
669;SDS011;317;48.758;9.302;2022-10-24T16:23:24;5.90;;;1.93;;
669;SDS011;317;48.758;9.302;2022-10-24T16:25:52;7.03;;;2.60;;
669;SDS011;317;48.758;9.302;2022-10-24T16:28:20;3.63;;;1.70;;
669;SDS011;317;48.758;9.302;2022-10-24T16:30:51;8.73;;;1.80;;
669;SDS011;317;48.758;9.302;2022-10-24T16:33:18;3.47;;;1.70;;